sensor_id;sensor_type;location;lat;lon;timestamp;P1;durP1;ratioP1;P2;durP2;ratioP2
68993;SDS011;56054;50.968;5.816;2022-12-07T00:00:09;20.63;;;11.13;;
68993;SDS011;56054;50.968;5.816;2022-12-07T00:03:18;19.60;;;10.53;;
68993;SDS011;56054;50.968;5.816;2022-12-07T00:06:25;23.33;;;10.40;;
68993;SDS011;56054;50.968;5.816;2022-12-07T00:09:32;19.47;;;11.53;;
68993;SDS011;56054;50.968;5.816;2022-12-07T00:12:40;19.00;;;11.03;;
68993;SDS011;56054;50.968;5.816;2022-12-07T00:15:47;17.70;;;10.67;;
68993;SDS011;56054;50.968;5.816;2022-12-07T00:18:54;14.63;;;9.27;;
68993;SDS011;56054;50.968;5.816;2022-12-07T00:22:01;19.60;;;11.67;;
68993;SDS011;56054;50.968;5.816;2022-12-07T00:25:08;19.10;;;9.83;;
68993;SDS011;56054;50.968;5.816;2022-12-07T00:28:15;19.13;;;10.33;;
68993;SDS011;56054;50.968;5.816;2022-12-07T00:31:23;16.83;;;10.03;;
68993;SDS011;56054;50.968;5.816;2022-12-07T00:34:35;25.00;;;11.50;;
68993;SDS011;56054;50.968;5.816;2022-12-07T00:37:42;21.10;;;10.17;;
68993;SDS011;56054;50.968;5.816;2022-12-07T00:41:01;19.20;;;9.83;;
68993;SDS011;56054;50.968;5.816;2022-12-07T00:44:10;17.90;;;10.53;;
68993;SDS011;56054;50.968;5.816;2022-12-07T00:47:17;21.50;;;11.77;;
68993;SDS011;56054;50.968;5.816;2022-12-07T00:50:24;21.23;;;11.47;;
68993;SDS011;56054;50.968;5.816;2022-12-07T00:53:31;22.13;;;12.40;;
68993;SDS011;56054;50.968;5.816;2022-12-07T00:56:41;23.17;;;13.63;;
68993;SDS011;56054;50.968;5.816;2022-12-07T00:59:51;25.30;;;15.13;;
68993;SDS011;56054;50.968;5.816;2022-12-07T01:02:59;27.13;;;14.90;;
68993;SDS011;56054;50.968;5.816;2022-12-07T01:06:06;27.13;;;15.33;;
68993;SDS011;56054;50.968;5.816;2022-12-07T01:09:13;25.53;;;14.50;;
68993;SDS011;56054;50.968;5.816;2022-12-07T01:12:20;22.53;;;14.17;;
68993;SDS011;56054;50.968;5.816;2022-12-07T01:15:27;28.30;;;15.50;;
68993;SDS011;56054;50.968;5.816;2022-12-07T01:18:34;29.33;;;16.17;;
68993;SDS011;56054;50.968;5.816;2022-12-07T01:21:42;27.93;;;15.53;;
68993;SDS011;56054;50.968;5.816;2022-12-07T01:24:49;28.57;;;14.87;;
68993;SDS011;56054;50.968;5.816;2022-12-07T01:27:56;27.97;;;16.07;;
68993;SDS011;56054;50.968;5.816;2022-12-07T01:31:04;34.80;;;16.33;;
68993;SDS011;56054;50.968;5.816;2022-12-07T01:34:15;28.63;;;14.87;;
68993;SDS011;56054;50.968;5.816;2022-12-07T01:37:22;28.17;;;16.13;;
68993;SDS011;56054;50.968;5.816;2022-12-07T01:40:29;30.73;;;16.47;;
68993;SDS011;56054;50.968;5.816;2022-12-07T01:43:36;31.53;;;17.60;;
68993;SDS011;56054;50.968;5.816;2022-12-07T01:46:44;27.97;;;17.10;;
68993;SDS011;56054;50.968;5.816;2022-12-07T01:50:04;33.57;;;17.43;;
68993;SDS011;56054;50.968;5.816;2022-12-07T01:53:12;26.50;;;17.37;;
68993;SDS011;56054;50.968;5.816;2022-12-07T01:56:20;32.20;;;17.87;;
68993;SDS011;56054;50.968;5.816;2022-12-07T01:59:31;33.17;;;17.77;;
68993;SDS011;56054;50.968;5.816;2022-12-07T02:02:55;33.33;;;19.20;;
68993;SDS011;56054;50.968;5.816;2022-12-07T02:06:08;26.43;;;16.50;;
68993;SDS011;56054;50.968;5.816;2022-12-07T02:09:18;30.97;;;17.07;;
68993;SDS011;56054;50.968;5.816;2022-12-07T02:12:25;32.07;;;18.73;;
68993;SDS011;56054;50.968;5.816;2022-12-07T02:15:36;37.13;;;18.97;;
68993;SDS011;56054;50.968;5.816;2022-12-07T02:29:35;36.43;;;18.97;;
68993;SDS011;56054;50.968;5.816;2022-12-07T02:36:29;27.67;;;17.03;;
68993;SDS011;56054;50.968;5.816;2022-12-07T02:43:03;33.03;;;17.03;;
68993;SDS011;56054;50.968;5.816;2022-12-07T02:46:23;33.00;;;17.50;;
68993;SDS011;56054;50.968;5.816;2022-12-07T02:49:33;33.17;;;17.90;;
68993;SDS011;56054;50.968;5.816;2022-12-07T02:52:41;32.67;;;17.73;;
68993;SDS011;56054;50.968;5.816;2022-12-07T02:55:48;28.50;;;16.77;;
68993;SDS011;56054;50.968;5.816;2022-12-07T03:05:49;31.03;;;16.47;;
68993;SDS011;56054;50.968;5.816;2022-12-07T03:09:19;29.93;;;18.80;;
68993;SDS011;56054;50.968;5.816;2022-12-07T03:12:44;27.60;;;17.17;;
68993;SDS011;56054;50.968;5.816;2022-12-07T03:19:17;31.87;;;17.70;;
68993;SDS011;56054;50.968;5.816;2022-12-07T03:22:26;31.57;;;18.07;;
68993;SDS011;56054;50.968;5.816;2022-12-07T03:25:42;30.67;;;17.07;;
68993;SDS011;56054;50.968;5.816;2022-12-07T03:28:55;31.73;;;17.73;;
68993;SDS011;56054;50.968;5.816;2022-12-07T03:32:08;32.37;;;18.10;;
68993;SDS011;56054;50.968;5.816;2022-12-07T03:35:22;30.60;;;16.87;;
68993;SDS011;56054;50.968;5.816;2022-12-07T03:38:36;31.13;;;16.80;;
68993;SDS011;56054;50.968;5.816;2022-12-07T03:41:52;33.87;;;18.50;;
68993;SDS011;56054;50.968;5.816;2022-12-07T03:45:01;28.97;;;17.73;;
68993;SDS011;56054;50.968;5.816;2022-12-07T03:48:27;30.93;;;17.80;;
68993;SDS011;56054;50.968;5.816;2022-12-07T03:51:46;35.90;;;17.70;;
68993;SDS011;56054;50.968;5.816;2022-12-07T03:55:06;32.83;;;17.97;;
68993;SDS011;56054;50.968;5.816;2022-12-07T03:58:19;33.10;;;18.63;;
68993;SDS011;56054;50.968;5.816;2022-12-07T04:01:28;34.63;;;17.93;;
68993;SDS011;56054;50.968;5.816;2022-12-07T04:04:35;28.93;;;17.27;;
68993;SDS011;56054;50.968;5.816;2022-12-07T04:07:42;33.90;;;17.83;;
68993;SDS011;56054;50.968;5.816;2022-12-07T04:10:49;34.27;;;17.43;;
68993;SDS011;56054;50.968;5.816;2022-12-07T04:13:56;29.03;;;17.17;;
68993;SDS011;56054;50.968;5.816;2022-12-07T04:17:03;30.90;;;17.07;;
68993;SDS011;56054;50.968;5.816;2022-12-07T04:20:10;31.93;;;17.20;;
68993;SDS011;56054;50.968;5.816;2022-12-07T04:23:18;28.30;;;16.03;;
68993;SDS011;56054;50.968;5.816;2022-12-07T04:26:25;30.70;;;17.43;;
68993;SDS011;56054;50.968;5.816;2022-12-07T04:29:32;27.07;;;16.57;;
68993;SDS011;56054;50.968;5.816;2022-12-07T04:32:39;31.73;;;15.80;;
68993;SDS011;56054;50.968;5.816;2022-12-07T04:35:46;30.43;;;15.73;;
68993;SDS011;56054;50.968;5.816;2022-12-07T04:38:54;30.30;;;16.70;;
68993;SDS011;56054;50.968;5.816;2022-12-07T04:42:01;28.60;;;16.30;;
68993;SDS011;56054;50.968;5.816;2022-12-07T04:45:08;30.13;;;17.17;;
68993;SDS011;56054;50.968;5.816;2022-12-07T04:48:15;28.40;;;15.57;;
68993;SDS011;56054;50.968;5.816;2022-12-07T04:51:26;27.37;;;14.30;;
68993;SDS011;56054;50.968;5.816;2022-12-07T04:54:35;25.63;;;15.07;;
68993;SDS011;56054;50.968;5.816;2022-12-07T04:57:43;28.23;;;14.13;;
68993;SDS011;56054;50.968;5.816;2022-12-07T05:00:53;23.57;;;13.50;;
68993;SDS011;56054;50.968;5.816;2022-12-07T05:04:01;24.57;;;13.83;;
68993;SDS011;56054;50.968;5.816;2022-12-07T05:07:08;26.63;;;13.50;;
68993;SDS011;56054;50.968;5.816;2022-12-07T05:10:15;23.77;;;14.07;;
68993;SDS011;56054;50.968;5.816;2022-12-07T05:13:22;24.20;;;12.60;;
68993;SDS011;56054;50.968;5.816;2022-12-07T05:16:29;26.87;;;14.07;;
68993;SDS011;56054;50.968;5.816;2022-12-07T05:19:36;24.30;;;12.93;;
68993;SDS011;56054;50.968;5.816;2022-12-07T05:22:43;30.93;;;14.57;;
68993;SDS011;56054;50.968;5.816;2022-12-07T05:25:50;26.43;;;14.43;;
68993;SDS011;56054;50.968;5.816;2022-12-07T05:28:57;25.53;;;14.17;;
68993;SDS011;56054;50.968;5.816;2022-12-07T05:32:04;27.23;;;14.23;;
68993;SDS011;56054;50.968;5.816;2022-12-07T05:35:11;30.70;;;14.37;;
68993;SDS011;56054;50.968;5.816;2022-12-07T05:38:18;30.67;;;15.27;;
68993;SDS011;56054;50.968;5.816;2022-12-07T05:41:25;29.63;;;14.87;;
68993;SDS011;56054;50.968;5.816;2022-12-07T05:44:32;27.30;;;14.53;;
68993;SDS011;56054;50.968;5.816;2022-12-07T05:47:39;29.50;;;17.00;;
68993;SDS011;56054;50.968;5.816;2022-12-07T05:50:49;31.00;;;16.27;;
68993;SDS011;56054;50.968;5.816;2022-12-07T05:53:56;27.23;;;15.53;;
68993;SDS011;56054;50.968;5.816;2022-12-07T05:57:03;26.03;;;14.23;;
68993;SDS011;56054;50.968;5.816;2022-12-07T06:00:10;37.13;;;17.20;;
68993;SDS011;56054;50.968;5.816;2022-12-07T06:03:18;29.70;;;15.27;;
68993;SDS011;56054;50.968;5.816;2022-12-07T06:06:25;28.20;;;16.47;;
68993;SDS011;56054;50.968;5.816;2022-12-07T06:09:32;29.83;;;16.20;;
68993;SDS011;56054;50.968;5.816;2022-12-07T06:12:40;30.63;;;17.47;;
68993;SDS011;56054;50.968;5.816;2022-12-07T06:15:47;27.87;;;15.83;;
68993;SDS011;56054;50.968;5.816;2022-12-07T06:18:54;27.87;;;15.43;;
68993;SDS011;56054;50.968;5.816;2022-12-07T06:22:01;34.40;;;16.57;;
68993;SDS011;56054;50.968;5.816;2022-12-07T06:25:09;33.30;;;16.70;;
68993;SDS011;56054;50.968;5.816;2022-12-07T06:28:16;28.63;;;15.83;;
68993;SDS011;56054;50.968;5.816;2022-12-07T06:31:23;30.83;;;15.97;;
68993;SDS011;56054;50.968;5.816;2022-12-07T06:34:30;27.27;;;16.93;;
68993;SDS011;56054;50.968;5.816;2022-12-07T06:37:37;30.43;;;17.67;;
68993;SDS011;56054;50.968;5.816;2022-12-07T06:40:44;35.30;;;16.90;;
68993;SDS011;56054;50.968;5.816;2022-12-07T06:43:51;39.30;;;18.93;;
68993;SDS011;56054;50.968;5.816;2022-12-07T06:46:58;37.40;;;17.83;;
68993;SDS011;56054;50.968;5.816;2022-12-07T06:50:05;30.00;;;16.47;;
68993;SDS011;56054;50.968;5.816;2022-12-07T06:53:13;34.57;;;18.60;;
68993;SDS011;56054;50.968;5.816;2022-12-07T06:56:20;31.87;;;18.40;;
68993;SDS011;56054;50.968;5.816;2022-12-07T06:59:27;37.60;;;19.33;;
68993;SDS011;56054;50.968;5.816;2022-12-07T07:02:34;34.77;;;19.00;;
68993;SDS011;56054;50.968;5.816;2022-12-07T07:05:48;29.20;;;16.33;;
68993;SDS011;56054;50.968;5.816;2022-12-07T07:08:55;30.90;;;17.00;;
68993;SDS011;56054;50.968;5.816;2022-12-07T07:12:02;34.97;;;17.90;;
68993;SDS011;56054;50.968;5.816;2022-12-07T07:15:09;30.17;;;15.47;;
68993;SDS011;56054;50.968;5.816;2022-12-07T07:18:16;26.77;;;14.87;;
68993;SDS011;56054;50.968;5.816;2022-12-07T07:21:23;25.07;;;13.60;;
68993;SDS011;56054;50.968;5.816;2022-12-07T07:24:30;24.53;;;13.70;;
68993;SDS011;56054;50.968;5.816;2022-12-07T07:27:37;24.17;;;13.53;;
68993;SDS011;56054;50.968;5.816;2022-12-07T07:30:44;28.67;;;13.80;;
68993;SDS011;56054;50.968;5.816;2022-12-07T07:33:51;24.10;;;13.40;;
68993;SDS011;56054;50.968;5.816;2022-12-07T07:36:58;33.30;;;14.97;;
68993;SDS011;56054;50.968;5.816;2022-12-07T07:40:05;24.10;;;14.03;;
68993;SDS011;56054;50.968;5.816;2022-12-07T07:43:13;26.53;;;14.13;;
68993;SDS011;56054;50.968;5.816;2022-12-07T07:46:20;32.63;;;14.37;;
68993;SDS011;56054;50.968;5.816;2022-12-07T07:49:52;27.07;;;13.97;;
68993;SDS011;56054;50.968;5.816;2022-12-07T07:53:02;21.20;;;13.30;;
68993;SDS011;56054;50.968;5.816;2022-12-07T07:56:09;29.50;;;14.80;;
68993;SDS011;56054;50.968;5.816;2022-12-07T07:59:16;31.70;;;15.33;;
68993;SDS011;56054;50.968;5.816;2022-12-07T08:02:23;27.80;;;14.53;;
68993;SDS011;56054;50.968;5.816;2022-12-07T08:05:37;31.50;;;16.20;;
68993;SDS011;56054;50.968;5.816;2022-12-07T08:08:44;38.87;;;18.57;;
68993;SDS011;56054;50.968;5.816;2022-12-07T08:12:01;32.93;;;17.60;;
68993;SDS011;56054;50.968;5.816;2022-12-07T08:15:24;34.53;;;18.83;;
68993;SDS011;56054;50.968;5.816;2022-12-07T08:22:17;33.50;;;17.33;;
68993;SDS011;56054;50.968;5.816;2022-12-07T08:25:24;31.40;;;16.70;;
68993;SDS011;56054;50.968;5.816;2022-12-07T08:33:07;29.77;;;17.03;;
68993;SDS011;56054;50.968;5.816;2022-12-07T08:36:49;35.67;;;18.77;;
68993;SDS011;56054;50.968;5.816;2022-12-07T08:44:36;39.27;;;18.47;;
68993;SDS011;56054;50.968;5.816;2022-12-07T08:48:01;38.57;;;20.07;;
68993;SDS011;56054;50.968;5.816;2022-12-07T08:51:15;35.63;;;18.63;;
68993;SDS011;56054;50.968;5.816;2022-12-07T08:54:25;37.23;;;19.03;;
68993;SDS011;56054;50.968;5.816;2022-12-07T08:57:34;49.07;;;22.13;;
68993;SDS011;56054;50.968;5.816;2022-12-07T09:00:42;41.03;;;20.13;;
68993;SDS011;56054;50.968;5.816;2022-12-07T09:04:15;41.03;;;18.83;;
68993;SDS011;56054;50.968;5.816;2022-12-07T09:07:31;45.70;;;19.97;;
68993;SDS011;56054;50.968;5.816;2022-12-07T09:10:56;36.33;;;18.17;;
68993;SDS011;56054;50.968;5.816;2022-12-07T09:14:22;37.23;;;20.87;;
68993;SDS011;56054;50.968;5.816;2022-12-07T09:17:57;34.90;;;19.80;;
68993;SDS011;56054;50.968;5.816;2022-12-07T09:21:24;40.60;;;19.07;;
68993;SDS011;56054;50.968;5.816;2022-12-07T09:24:42;39.67;;;21.03;;
68993;SDS011;56054;50.968;5.816;2022-12-07T09:27:56;34.00;;;18.43;;
68993;SDS011;56054;50.968;5.816;2022-12-07T09:31:04;37.97;;;19.03;;
68993;SDS011;56054;50.968;5.816;2022-12-07T09:38:31;44.43;;;19.80;;
68993;SDS011;56054;50.968;5.816;2022-12-07T09:41:39;39.03;;;19.03;;
68993;SDS011;56054;50.968;5.816;2022-12-07T09:44:49;42.47;;;19.67;;
68993;SDS011;56054;50.968;5.816;2022-12-07T09:47:57;42.20;;;20.17;;
68993;SDS011;56054;50.968;5.816;2022-12-07T09:51:18;39.23;;;19.67;;
68993;SDS011;56054;50.968;5.816;2022-12-07T09:54:27;38.90;;;18.30;;
68993;SDS011;56054;50.968;5.816;2022-12-07T09:57:35;41.23;;;19.07;;
68993;SDS011;56054;50.968;5.816;2022-12-07T10:00:42;40.13;;;19.83;;
68993;SDS011;56054;50.968;5.816;2022-12-07T10:03:53;38.37;;;19.00;;
68993;SDS011;56054;50.968;5.816;2022-12-07T10:07:05;40.67;;;19.70;;
68993;SDS011;56054;50.968;5.816;2022-12-07T10:10:14;40.73;;;19.43;;
68993;SDS011;56054;50.968;5.816;2022-12-07T10:13:35;38.80;;;20.37;;
68993;SDS011;56054;50.968;5.816;2022-12-07T10:16:50;36.67;;;18.03;;
68993;SDS011;56054;50.968;5.816;2022-12-07T10:20:20;43.93;;;19.03;;
68993;SDS011;56054;50.968;5.816;2022-12-07T10:23:26;33.40;;;18.70;;
68993;SDS011;56054;50.968;5.816;2022-12-07T10:29:55;35.97;;;17.33;;
68993;SDS011;56054;50.968;5.816;2022-12-07T10:33:15;41.27;;;17.83;;
68993;SDS011;56054;50.968;5.816;2022-12-07T10:36:35;34.97;;;17.43;;
68993;SDS011;56054;50.968;5.816;2022-12-07T10:56:39;23.63;;;13.27;;
68993;SDS011;56054;50.968;5.816;2022-12-07T11:16:55;17.63;;;9.30;;
68993;SDS011;56054;50.968;5.816;2022-12-07T11:31:08;18.90;;;9.43;;
68993;SDS011;56054;50.968;5.816;2022-12-07T11:41:28;21.07;;;11.60;;
68993;SDS011;56054;50.968;5.816;2022-12-07T11:47:59;22.43;;;13.30;;
68993;SDS011;56054;50.968;5.816;2022-12-07T11:51:10;25.07;;;11.97;;
68993;SDS011;56054;50.968;5.816;2022-12-07T11:54:22;17.20;;;9.90;;
68993;SDS011;56054;50.968;5.816;2022-12-07T11:57:44;24.77;;;10.73;;
68993;SDS011;56054;50.968;5.816;2022-12-07T12:01:05;17.80;;;9.53;;
68993;SDS011;56054;50.968;5.816;2022-12-07T12:18:13;17.73;;;7.27;;
68993;SDS011;56054;50.968;5.816;2022-12-07T12:21:33;11.20;;;5.00;;
68993;SDS011;56054;50.968;5.816;2022-12-07T12:24:43;10.77;;;5.53;;
68993;SDS011;56054;50.968;5.816;2022-12-07T12:27:53;12.37;;;5.63;;
68993;SDS011;56054;50.968;5.816;2022-12-07T12:34:38;9.67;;;4.90;;
68993;SDS011;56054;50.968;5.816;2022-12-07T12:37:48;10.77;;;4.90;;
68993;SDS011;56054;50.968;5.816;2022-12-07T12:41:02;15.43;;;5.80;;
68993;SDS011;56054;50.968;5.816;2022-12-07T12:51:37;6.60;;;4.20;;
68993;SDS011;56054;50.968;5.816;2022-12-07T13:01:32;10.33;;;4.50;;
68993;SDS011;56054;50.968;5.816;2022-12-07T13:04:50;11.53;;;5.57;;
68993;SDS011;56054;50.968;5.816;2022-12-07T13:08:04;9.70;;;4.70;;
68993;SDS011;56054;50.968;5.816;2022-12-07T13:11:35;10.60;;;4.90;;
68993;SDS011;56054;50.968;5.816;2022-12-07T13:14:55;14.57;;;4.50;;
68993;SDS011;56054;50.968;5.816;2022-12-07T13:21:42;8.97;;;4.90;;
68993;SDS011;56054;50.968;5.816;2022-12-07T13:24:54;6.43;;;4.60;;
68993;SDS011;56054;50.968;5.816;2022-12-07T13:28:22;16.37;;;4.80;;
68993;SDS011;56054;50.968;5.816;2022-12-07T13:31:37;6.73;;;4.07;;
68993;SDS011;56054;50.968;5.816;2022-12-07T13:34:47;11.80;;;4.10;;
68993;SDS011;56054;50.968;5.816;2022-12-07T13:37:54;9.57;;;4.43;;
68993;SDS011;56054;50.968;5.816;2022-12-07T13:41:14;12.07;;;4.53;;
68993;SDS011;56054;50.968;5.816;2022-12-07T13:44:34;14.37;;;4.40;;
68993;SDS011;56054;50.968;5.816;2022-12-07T13:47:43;13.67;;;4.10;;
68993;SDS011;56054;50.968;5.816;2022-12-07T13:50:59;13.20;;;4.53;;
68993;SDS011;56054;50.968;5.816;2022-12-07T13:54:10;11.00;;;4.53;;
68993;SDS011;56054;50.968;5.816;2022-12-07T13:57:19;13.47;;;4.20;;
68993;SDS011;56054;50.968;5.816;2022-12-07T14:00:27;11.17;;;3.77;;
68993;SDS011;56054;50.968;5.816;2022-12-07T14:03:36;9.43;;;4.00;;
68993;SDS011;56054;50.968;5.816;2022-12-07T14:06:49;9.97;;;3.80;;
68993;SDS011;56054;50.968;5.816;2022-12-07T14:10:27;13.73;;;3.77;;
68993;SDS011;56054;50.968;5.816;2022-12-07T14:13:59;11.03;;;4.47;;
68993;SDS011;56054;50.968;5.816;2022-12-07T14:20:31;11.03;;;3.97;;
68993;SDS011;56054;50.968;5.816;2022-12-07T14:23:43;11.07;;;3.90;;
68993;SDS011;56054;50.968;5.816;2022-12-07T14:26:51;8.83;;;3.80;;
68993;SDS011;56054;50.968;5.816;2022-12-07T14:29:58;7.87;;;3.40;;
68993;SDS011;56054;50.968;5.816;2022-12-07T14:33:07;9.33;;;3.80;;
68993;SDS011;56054;50.968;5.816;2022-12-07T14:36:15;6.13;;;3.30;;
68993;SDS011;56054;50.968;5.816;2022-12-07T14:39:22;6.80;;;3.40;;
68993;SDS011;56054;50.968;5.816;2022-12-07T14:42:29;9.67;;;3.63;;
68993;SDS011;56054;50.968;5.816;2022-12-07T14:45:37;10.20;;;3.67;;
68993;SDS011;56054;50.968;5.816;2022-12-07T14:48:44;11.67;;;3.10;;
68993;SDS011;56054;50.968;5.816;2022-12-07T14:51:51;8.27;;;3.33;;
68993;SDS011;56054;50.968;5.816;2022-12-07T14:54:58;10.87;;;3.53;;
68993;SDS011;56054;50.968;5.816;2022-12-07T14:58:05;6.43;;;3.10;;
68993;SDS011;56054;50.968;5.816;2022-12-07T15:01:12;6.13;;;3.40;;
68993;SDS011;56054;50.968;5.816;2022-12-07T15:04:19;8.93;;;3.60;;
68993;SDS011;56054;50.968;5.816;2022-12-07T15:07:26;7.13;;;3.40;;
68993;SDS011;56054;50.968;5.816;2022-12-07T15:10:33;7.23;;;2.80;;
68993;SDS011;56054;50.968;5.816;2022-12-07T15:13:40;10.17;;;2.80;;
68993;SDS011;56054;50.968;5.816;2022-12-07T15:16:47;7.37;;;2.50;;
68993;SDS011;56054;50.968;5.816;2022-12-07T15:19:54;9.40;;;2.27;;
68993;SDS011;56054;50.968;5.816;2022-12-07T15:23:03;7.80;;;2.07;;
68993;SDS011;56054;50.968;5.816;2022-12-07T15:26:10;9.53;;;2.50;;
68993;SDS011;56054;50.968;5.816;2022-12-07T15:29:17;2.77;;;1.83;;
68993;SDS011;56054;50.968;5.816;2022-12-07T15:32:32;3.93;;;2.10;;
68993;SDS011;56054;50.968;5.816;2022-12-07T15:35:40;5.50;;;1.90;;
68993;SDS011;56054;50.968;5.816;2022-12-07T15:38:48;5.73;;;2.10;;
68993;SDS011;56054;50.968;5.816;2022-12-07T15:42:02;5.90;;;2.10;;
68993;SDS011;56054;50.968;5.816;2022-12-07T15:45:10;4.40;;;1.90;;
68993;SDS011;56054;50.968;5.816;2022-12-07T15:48:17;4.97;;;2.03;;
68993;SDS011;56054;50.968;5.816;2022-12-07T15:51:24;7.63;;;2.20;;
68993;SDS011;56054;50.968;5.816;2022-12-07T15:54:31;9.23;;;2.83;;
68993;SDS011;56054;50.968;5.816;2022-12-07T15:57:38;6.87;;;2.80;;
68993;SDS011;56054;50.968;5.816;2022-12-07T16:00:45;12.50;;;3.27;;
68993;SDS011;56054;50.968;5.816;2022-12-07T16:03:52;7.17;;;3.00;;
68993;SDS011;56054;50.968;5.816;2022-12-07T16:07:06;8.40;;;3.63;;
68993;SDS011;56054;50.968;5.816;2022-12-07T16:10:13;5.47;;;3.03;;
68993;SDS011;56054;50.968;5.816;2022-12-07T16:13:20;9.07;;;3.67;;
68993;SDS011;56054;50.968;5.816;2022-12-07T16:16:27;10.33;;;4.33;;
68993;SDS011;56054;50.968;5.816;2022-12-07T16:19:35;11.13;;;5.13;;
68993;SDS011;56054;50.968;5.816;2022-12-07T16:22:42;8.43;;;4.57;;
68993;SDS011;56054;50.968;5.816;2022-12-07T16:25:49;9.03;;;4.43;;
68993;SDS011;56054;50.968;5.816;2022-12-07T16:28:56;9.53;;;4.27;;
68993;SDS011;56054;50.968;5.816;2022-12-07T16:32:03;9.70;;;4.70;;
68993;SDS011;56054;50.968;5.816;2022-12-07T16:35:10;15.53;;;5.40;;
68993;SDS011;56054;50.968;5.816;2022-12-07T16:38:18;10.37;;;6.00;;
68993;SDS011;56054;50.968;5.816;2022-12-07T16:41:25;7.80;;;4.60;;
68993;SDS011;56054;50.968;5.816;2022-12-07T16:44:37;10.77;;;5.30;;
68993;SDS011;56054;50.968;5.816;2022-12-07T16:47:44;11.17;;;5.20;;
68993;SDS011;56054;50.968;5.816;2022-12-07T16:50:51;11.13;;;5.37;;
68993;SDS011;56054;50.968;5.816;2022-12-07T16:53:58;11.70;;;5.37;;
68993;SDS011;56054;50.968;5.816;2022-12-07T16:57:05;12.57;;;6.17;;
68993;SDS011;56054;50.968;5.816;2022-12-07T17:00:15;16.37;;;6.23;;
68993;SDS011;56054;50.968;5.816;2022-12-07T17:03:23;11.60;;;6.30;;
68993;SDS011;56054;50.968;5.816;2022-12-07T17:06:30;11.43;;;6.20;;
68993;SDS011;56054;50.968;5.816;2022-12-07T17:09:37;17.50;;;7.20;;
68993;SDS011;56054;50.968;5.816;2022-12-07T17:12:44;11.87;;;6.03;;
68993;SDS011;56054;50.968;5.816;2022-12-07T17:15:58;14.37;;;7.00;;
68993;SDS011;56054;50.968;5.816;2022-12-07T17:19:10;13.40;;;6.80;;
68993;SDS011;56054;50.968;5.816;2022-12-07T17:22:19;13.77;;;7.20;;
68993;SDS011;56054;50.968;5.816;2022-12-07T17:25:26;11.60;;;6.50;;
68993;SDS011;56054;50.968;5.816;2022-12-07T17:28:33;13.83;;;6.20;;
68993;SDS011;56054;50.968;5.816;2022-12-07T17:31:41;11.47;;;5.93;;
68993;SDS011;56054;50.968;5.816;2022-12-07T17:34:49;12.37;;;7.10;;
68993;SDS011;56054;50.968;5.816;2022-12-07T17:37:57;10.57;;;5.30;;
68993;SDS011;56054;50.968;5.816;2022-12-07T17:41:08;10.73;;;5.63;;
68993;SDS011;56054;50.968;5.816;2022-12-07T17:44:18;8.60;;;5.40;;
68993;SDS011;56054;50.968;5.816;2022-12-07T17:47:28;9.40;;;5.27;;
68993;SDS011;56054;50.968;5.816;2022-12-07T17:50:35;7.60;;;5.13;;
68993;SDS011;56054;50.968;5.816;2022-12-07T17:53:42;13.33;;;5.47;;
68993;SDS011;56054;50.968;5.816;2022-12-07T17:56:49;12.03;;;5.00;;
68993;SDS011;56054;50.968;5.816;2022-12-07T17:59:56;10.47;;;5.67;;
68993;SDS011;56054;50.968;5.816;2022-12-07T18:03:11;9.90;;;5.27;;
68993;SDS011;56054;50.968;5.816;2022-12-07T18:06:18;11.97;;;5.13;;
68993;SDS011;56054;50.968;5.816;2022-12-07T18:09:32;9.33;;;5.50;;
68993;SDS011;56054;50.968;5.816;2022-12-07T18:12:39;9.73;;;5.87;;
68993;SDS011;56054;50.968;5.816;2022-12-07T18:15:46;7.90;;;5.53;;
68993;SDS011;56054;50.968;5.816;2022-12-07T18:18:53;9.27;;;5.17;;
68993;SDS011;56054;50.968;5.816;2022-12-07T18:22:00;17.80;;;7.00;;
68993;SDS011;56054;50.968;5.816;2022-12-07T18:25:07;13.60;;;6.00;;
68993;SDS011;56054;50.968;5.816;2022-12-07T18:28:14;15.60;;;6.67;;
68993;SDS011;56054;50.968;5.816;2022-12-07T18:31:21;14.07;;;5.53;;
68993;SDS011;56054;50.968;5.816;2022-12-07T18:34:28;14.90;;;6.00;;
68993;SDS011;56054;50.968;5.816;2022-12-07T18:37:35;14.93;;;6.33;;
68993;SDS011;56054;50.968;5.816;2022-12-07T18:40:42;10.63;;;6.27;;
68993;SDS011;56054;50.968;5.816;2022-12-07T18:43:50;13.27;;;6.63;;
68993;SDS011;56054;50.968;5.816;2022-12-07T18:46:57;10.07;;;6.53;;
68993;SDS011;56054;50.968;5.816;2022-12-07T18:50:04;11.33;;;6.90;;
68993;SDS011;56054;50.968;5.816;2022-12-07T18:53:12;10.03;;;6.53;;
68993;SDS011;56054;50.968;5.816;2022-12-07T18:56:20;14.27;;;6.27;;
68993;SDS011;56054;50.968;5.816;2022-12-07T18:59:28;10.17;;;6.53;;
68993;SDS011;56054;50.968;5.816;2022-12-07T19:02:35;15.00;;;6.67;;
68993;SDS011;56054;50.968;5.816;2022-12-07T19:05:42;11.20;;;6.33;;
68993;SDS011;56054;50.968;5.816;2022-12-07T19:08:49;11.83;;;6.77;;
68993;SDS011;56054;50.968;5.816;2022-12-07T19:11:56;10.23;;;6.33;;
68993;SDS011;56054;50.968;5.816;2022-12-07T19:15:03;12.90;;;6.47;;
68993;SDS011;56054;50.968;5.816;2022-12-07T19:18:11;14.00;;;6.13;;
68993;SDS011;56054;50.968;5.816;2022-12-07T19:21:18;10.67;;;6.00;;
68993;SDS011;56054;50.968;5.816;2022-12-07T19:24:25;16.30;;;5.80;;
68993;SDS011;56054;50.968;5.816;2022-12-07T19:27:33;12.03;;;6.90;;
68993;SDS011;56054;50.968;5.816;2022-12-07T19:30:40;13.67;;;6.37;;
68993;SDS011;56054;50.968;5.816;2022-12-07T19:33:50;13.73;;;7.77;;
68993;SDS011;56054;50.968;5.816;2022-12-07T19:37:23;13.20;;;7.40;;
68993;SDS011;56054;50.968;5.816;2022-12-07T19:40:30;13.77;;;7.63;;
68993;SDS011;56054;50.968;5.816;2022-12-07T19:43:43;15.13;;;7.37;;
68993;SDS011;56054;50.968;5.816;2022-12-07T19:47:04;12.87;;;7.50;;
68993;SDS011;56054;50.968;5.816;2022-12-07T19:50:39;14.00;;;7.23;;
68993;SDS011;56054;50.968;5.816;2022-12-07T19:54:08;14.27;;;7.40;;
68993;SDS011;56054;50.968;5.816;2022-12-07T19:57:16;14.60;;;7.70;;
68993;SDS011;56054;50.968;5.816;2022-12-07T20:00:23;16.57;;;7.93;;
68993;SDS011;56054;50.968;5.816;2022-12-07T20:03:53;11.77;;;6.97;;
68993;SDS011;56054;50.968;5.816;2022-12-07T20:07:02;20.10;;;7.33;;
68993;SDS011;56054;50.968;5.816;2022-12-07T20:10:37;16.30;;;8.00;;
68993;SDS011;56054;50.968;5.816;2022-12-07T20:13:44;15.33;;;7.07;;
68993;SDS011;56054;50.968;5.816;2022-12-07T20:16:51;11.07;;;7.03;;
68993;SDS011;56054;50.968;5.816;2022-12-07T20:19:58;16.50;;;7.13;;
68993;SDS011;56054;50.968;5.816;2022-12-07T20:23:05;16.70;;;7.43;;
68993;SDS011;56054;50.968;5.816;2022-12-07T20:26:13;15.13;;;7.00;;
68993;SDS011;56054;50.968;5.816;2022-12-07T20:29:22;9.53;;;6.27;;
68993;SDS011;56054;50.968;5.816;2022-12-07T20:32:30;13.67;;;7.13;;
68993;SDS011;56054;50.968;5.816;2022-12-07T20:35:37;11.77;;;6.73;;
68993;SDS011;56054;50.968;5.816;2022-12-07T20:38:44;12.07;;;6.53;;
68993;SDS011;56054;50.968;5.816;2022-12-07T20:41:53;15.40;;;6.43;;
68993;SDS011;56054;50.968;5.816;2022-12-07T20:45:00;13.60;;;6.57;;
68993;SDS011;56054;50.968;5.816;2022-12-07T20:48:07;16.43;;;7.53;;
68993;SDS011;56054;50.968;5.816;2022-12-07T20:51:14;14.97;;;8.30;;
68993;SDS011;56054;50.968;5.816;2022-12-07T20:54:21;16.60;;;8.30;;
68993;SDS011;56054;50.968;5.816;2022-12-07T20:57:28;16.00;;;9.00;;
68993;SDS011;56054;50.968;5.816;2022-12-07T21:00:35;17.63;;;8.70;;
68993;SDS011;56054;50.968;5.816;2022-12-07T21:03:42;21.07;;;9.83;;